createdAt,value
2023-04-04T00:07:41.964Z,92.20
2023-04-04T00:10:27.552Z,93.70
2023-04-04T00:13:13.310Z,92.30
2023-04-04T00:15:58.828Z,95.60
2023-04-04T00:18:44.497Z,92.90
2023-04-04T00:21:30.638Z,92.20
2023-04-04T00:24:16.463Z,94.40
2023-04-04T00:27:02.002Z,96.20
2023-04-04T00:29:47.365Z,97.80
2023-04-04T00:32:32.914Z,95.10
2023-04-04T00:38:04.772Z,92.80
2023-04-04T00:40:51.472Z,96.20
2023-04-04T00:43:36.845Z,94.40
2023-04-04T00:46:23.355Z,98.20
2023-04-04T00:49:09.009Z,94.30
2023-04-04T00:54:40.860Z,97.10
2023-04-04T01:02:59.369Z,98.00
2023-04-04T01:05:44.942Z,97.80
2023-04-04T01:08:30.450Z,96.10
2023-04-04T01:11:16.758Z,97.00
2023-04-04T01:14:02.642Z,99.00
2023-04-04T01:16:49.638Z,95.10
2023-04-04T01:19:38.098Z,95.90
2023-04-04T01:33:43.322Z,94.90
2023-04-04T01:36:31.991Z,96.30
2023-04-04T01:39:24.156Z,96.40
2023-04-04T01:42:09.796Z,96.90
2023-04-04T01:44:57.033Z,97.10
2023-04-04T01:47:47.935Z,96.80
2023-04-04T01:50:37.620Z,96.90
2023-04-04T02:01:43.816Z,98.20
2023-04-04T02:04:30.383Z,99.90
2023-04-04T02:07:15.974Z,96.40
2023-04-04T02:10:02.321Z,99.90
2023-04-04T02:12:47.836Z,98.20
2023-04-04T02:15:34.502Z,97.90
2023-04-04T02:18:20.418Z,98.70
2023-04-04T02:21:06.137Z,99.90
2023-04-04T02:29:24.588Z,99.90
2023-04-04T02:32:10.168Z,98.40
2023-04-04T02:34:55.827Z,97.20
2023-04-04T02:40:28.963Z,99.90
2023-04-04T02:43:14.598Z,96.20
2023-04-04T02:46:07.774Z,99.90
2023-04-04T02:49:01.953Z,99.70
2023-04-04T02:57:20.476Z,97.40
2023-04-04T03:02:56.255Z,96.80
2023-04-04T03:05:49.551Z,99.80
2023-04-04T03:08:35.788Z,98.80
2023-04-04T03:11:21.604Z,98.40
2023-04-04T03:14:09.566Z,99.90
2023-04-04T03:16:58.237Z,99.30
2023-04-04T03:19:43.937Z,99.90
2023-04-04T03:22:29.504Z,99.90
2023-04-04T03:25:14.930Z,99.90
2023-04-04T03:28:08.592Z,99.90
2023-04-04T03:30:54.150Z,99.90
2023-04-04T03:33:41.116Z,99.80
2023-04-04T03:36:26.615Z,99.90
2023-04-04T03:39:12.292Z,99.90
2023-04-04T03:41:58.050Z,99.90
2023-04-04T03:44:43.414Z,99.90
2023-04-04T03:47:36.534Z,99.90
2023-04-04T03:50:22.342Z,99.90
2023-04-04T03:53:12.166Z,99.90
2023-04-04T03:55:57.833Z,99.90
2023-04-04T03:58:43.242Z,99.90
2023-04-04T04:01:34.236Z,99.90
2023-04-04T04:04:21.232Z,99.90
2023-04-04T04:07:06.930Z,99.90
2023-04-04T04:09:52.731Z,99.90
2023-04-04T04:12:38.837Z,99.90
2023-04-04T04:15:24.585Z,99.90
2023-04-04T04:18:10.510Z,99.90
2023-04-04T04:21:04.055Z,99.90
2023-04-04T04:23:50.444Z,99.90
2023-04-04T04:26:35.968Z,99.90
2023-04-04T04:29:21.949Z,99.90
2023-04-04T04:32:07.692Z,99.90
2023-04-04T04:34:58.438Z,99.90
2023-04-04T04:37:47.963Z,99.90
2023-04-04T04:40:36.705Z,99.90
2023-04-04T04:43:31.645Z,99.90
2023-04-04T04:46:17.321Z,99.90
2023-04-04T04:49:03.579Z,99.90
2023-04-04T04:51:50.355Z,99.90
2023-04-04T04:54:37.269Z,99.90
2023-04-04T04:57:23.178Z,99.90
2023-04-04T05:00:10.057Z,99.90
2023-04-04T05:02:56.681Z,99.90
2023-04-04T05:05:53.422Z,99.90
2023-04-04T05:08:38.802Z,99.90
2023-04-04T05:11:44.439Z,99.90
2023-04-04T05:14:31.254Z,99.90
2023-04-04T05:17:16.765Z,99.90
2023-04-04T05:20:02.672Z,99.90
2023-04-04T05:22:50.261Z,99.90
2023-04-04T05:25:42.927Z,99.90
2023-04-04T05:28:29.229Z,99.90
2023-04-04T05:31:19.869Z,99.90
2023-04-04T05:34:10.959Z,99.90
2023-04-04T05:36:56.652Z,99.90
2023-04-04T05:39:42.776Z,99.90
2023-04-04T05:42:29.306Z,99.90
2023-04-04T05:45:17.552Z,99.90
2023-04-04T05:48:03.020Z,99.90
2023-04-04T05:50:53.801Z,99.90
2023-04-04T05:53:51.127Z,99.90
2023-04-04T05:56:41.661Z,99.90
2023-04-04T05:59:35.059Z,99.90
2023-04-04T06:02:23.226Z,99.90
2023-04-04T06:05:13.338Z,99.90
2023-04-04T06:07:58.769Z,99.90
2023-04-04T06:10:44.584Z,99.90
2023-04-04T06:13:30.865Z,99.90
2023-04-04T06:16:22.516Z,99.90
2023-04-04T06:19:07.902Z,99.90
2023-04-04T06:21:53.586Z,99.90
2023-04-04T06:24:39.162Z,99.90
2023-04-04T06:27:24.838Z,99.90
2023-04-04T06:30:11.873Z,99.90
2023-04-04T06:32:59.176Z,99.90
2023-04-04T06:35:47.316Z,99.90
2023-04-04T06:38:34.623Z,99.90
2023-04-04T06:41:24.270Z,99.90
2023-04-04T06:44:11.532Z,99.90
2023-04-04T06:46:57.149Z,99.90
2023-04-04T06:49:43.427Z,99.90
2023-04-04T06:52:29.566Z,99.90
2023-04-04T06:55:15.634Z,99.90
2023-04-04T06:58:01.211Z,99.90
2023-04-04T07:00:46.771Z,99.90
2023-04-04T07:03:32.358Z,99.90
2023-04-04T07:06:18.646Z,99.90
2023-04-04T07:09:10.875Z,99.90
2023-04-04T07:12:04.512Z,99.90
2023-04-04T07:14:50.180Z,99.90
2023-04-04T07:17:37.831Z,99.90
2023-04-04T07:20:23.489Z,99.90
2023-04-04T07:23:08.794Z,99.90
2023-04-04T07:25:54.524Z,99.90
2023-04-04T07:28:40.198Z,99.90
2023-04-04T07:31:26.063Z,99.90
2023-04-04T07:34:11.584Z,99.90
2023-04-04T07:36:57.102Z,99.90
2023-04-04T07:39:42.678Z,99.90
2023-04-04T07:42:31.591Z,99.90
2023-04-04T07:45:18.099Z,99.90
2023-04-04T07:48:03.971Z,99.90
2023-04-04T07:50:49.295Z,99.90
2023-04-04T07:53:34.917Z,99.90
2023-04-04T07:56:22.048Z,99.90
2023-04-04T07:59:07.581Z,99.90
2023-04-04T08:01:53.365Z,99.90
2023-04-04T08:04:39.041Z,99.90
2023-04-04T08:07:25.370Z,99.90
2023-04-04T08:10:10.750Z,99.90
2023-04-04T08:12:56.223Z,99.90
2023-04-04T08:15:42.113Z,99.90
2023-04-04T08:18:27.478Z,99.90
2023-04-04T08:21:13.467Z,99.90
2023-04-04T08:23:58.833Z,99.90
2023-04-04T08:26:49.106Z,99.90
2023-04-04T08:29:40.670Z,99.90
2023-04-04T08:32:26.489Z,99.90
2023-04-04T08:35:12.882Z,99.90
2023-04-04T08:37:58.154Z,99.90
2023-04-04T08:40:48.016Z,99.90
2023-04-04T08:43:34.378Z,99.90
2023-04-04T08:46:22.113Z,99.90
2023-04-04T08:49:07.700Z,99.90
2023-04-04T08:51:55.234Z,99.90
2023-04-04T08:54:41.089Z,99.90
2023-04-04T08:57:27.434Z,99.90
2023-04-04T09:00:14.116Z,99.90
2023-04-04T09:03:03.057Z,99.90
2023-04-04T09:05:49.026Z,99.90
2023-04-04T09:08:34.935Z,99.90
2023-04-04T09:11:23.517Z,99.90
2023-04-04T09:14:10.925Z,99.90
2023-04-04T09:16:57.064Z,99.90
2023-04-04T09:19:50.355Z,99.90
2023-04-04T09:22:44.932Z,99.90
2023-04-04T09:25:30.480Z,99.90
2023-04-04T09:28:16.381Z,99.90
2023-04-04T09:31:06.119Z,99.90
2023-04-04T09:33:51.730Z,99.90
2023-04-04T09:36:37.439Z,99.90
2023-04-04T09:39:23.526Z,99.90
2023-04-04T09:42:09.491Z,99.90
2023-04-04T09:44:54.896Z,99.90
2023-04-04T09:47:42.788Z,99.90
2023-04-04T09:50:33.605Z,99.90
2023-04-04T09:53:19.273Z,99.90
2023-04-04T09:56:04.823Z,99.90
2023-04-04T09:59:00.797Z,99.90
2023-04-04T10:01:51.393Z,99.90
2023-04-04T10:04:37.908Z,99.90
2023-04-04T10:07:27.057Z,99.90
2023-04-04T10:10:13.904Z,99.90
2023-04-04T10:13:00.837Z,99.90
2023-04-04T10:15:47.021Z,99.90
2023-04-04T10:18:33.791Z,99.90
2023-04-04T10:21:19.361Z,99.90
2023-04-04T10:24:09.443Z,99.90
2023-04-04T10:26:55.493Z,99.90
2023-04-04T10:29:40.986Z,99.90
2023-04-04T10:32:30.238Z,99.90
2023-04-04T10:35:15.829Z,99.90
2023-04-04T10:38:03.106Z,99.90
2023-04-04T10:40:50.175Z,99.90
2023-04-04T10:43:40.438Z,99.90
2023-04-04T10:46:30.921Z,99.90
2023-04-04T10:49:16.586Z,99.90
2023-04-04T10:52:02.642Z,99.90
2023-04-04T10:54:54.194Z,99.90
2023-04-04T10:57:43.767Z,99.90
2023-04-04T11:00:29.643Z,99.90
2023-04-04T11:03:15.164Z,99.90
2023-04-04T11:06:01.983Z,99.90
2023-04-04T11:08:53.847Z,99.90
2023-04-04T11:11:59.118Z,99.90
2023-04-04T11:14:54.951Z,99.90
2023-04-04T11:17:44.152Z,99.90
2023-04-04T11:20:34.735Z,99.90
2023-04-04T11:23:22.696Z,99.90
2023-04-04T11:26:09.022Z,99.90
2023-04-04T11:28:58.481Z,99.90
2023-04-04T11:31:45.320Z,99.90
2023-04-04T11:34:31.755Z,99.90
2023-04-04T11:37:20.805Z,99.90
2023-04-04T11:40:12.208Z,99.90
2023-04-04T11:43:03.326Z,99.90
2023-04-04T11:45:49.011Z,99.90
2023-04-04T11:48:35.586Z,99.90
2023-04-04T11:51:23.309Z,99.60
2023-04-04T11:54:16.978Z,99.30
2023-04-04T11:57:03.681Z,99.10
2023-04-04T11:59:50.704Z,98.60
2023-04-04T12:02:36.629Z,98.40
2023-04-04T12:05:23.281Z,98.00
2023-04-04T12:08:09.809Z,97.70
2023-04-04T12:10:55.768Z,97.40
2023-04-04T12:13:48.720Z,97.10
2023-04-04T12:16:36.034Z,96.80
2023-04-04T12:19:24.933Z,96.50
2023-04-04T12:22:10.995Z,96.40
2023-04-04T12:24:59.181Z,96.10
2023-04-04T12:27:45.161Z,95.80
2023-04-04T12:30:30.805Z,95.70
2023-04-04T12:33:16.392Z,95.60
2023-04-04T12:36:05.501Z,95.30
2023-04-04T12:39:01.117Z,95.00
2023-04-04T12:41:53.545Z,94.90
2023-04-04T12:44:39.715Z,94.70
2023-04-04T12:47:26.377Z,94.50
2023-04-04T12:50:20.220Z,94.30
2023-04-04T12:53:24.143Z,94.20
2023-04-04T12:56:12.341Z,94.10
2023-04-04T12:59:03.359Z,93.80
2023-04-04T13:01:48.883Z,93.60
2023-04-04T13:04:34.670Z,93.40
2023-04-04T13:07:26.519Z,93.20
2023-04-04T13:10:14.989Z,92.90
2023-04-04T13:13:01.184Z,92.60
2023-04-04T13:15:52.841Z,92.30
2023-04-04T13:18:41.833Z,92.00
2023-04-04T13:21:27.666Z,91.80
2023-04-04T13:24:13.101Z,91.50
2023-04-04T13:26:58.970Z,91.20
2023-04-04T13:29:44.372Z,90.90
2023-04-04T13:32:31.119Z,90.60
2023-04-04T13:35:16.660Z,90.40
2023-04-04T13:38:02.421Z,90.00
2023-04-04T13:40:47.738Z,89.30
2023-04-04T13:43:33.568Z,88.80
2023-04-04T13:46:19.296Z,88.30
2023-04-04T13:49:04.804Z,87.50
2023-04-04T13:51:50.608Z,86.90
2023-04-04T13:54:35.891Z,86.20
2023-04-04T13:57:21.775Z,85.50
2023-04-04T14:00:07.782Z,84.80
2023-04-04T14:02:57.214Z,84.00
2023-04-04T14:05:43.234Z,83.40
2023-04-04T14:08:28.635Z,82.90
2023-04-04T14:11:15.292Z,82.30
2023-04-04T14:14:01.133Z,82.40
2023-04-04T14:16:47.229Z,82.10
2023-04-04T14:19:32.859Z,81.90
2023-04-04T14:22:18.224Z,81.40
2023-04-04T14:25:05.128Z,80.80
2023-04-04T14:27:51.091Z,80.90
2023-04-04T14:30:36.723Z,80.60
2023-04-04T14:33:22.397Z,80.40
2023-04-04T14:36:08.201Z,80.10
2023-04-04T14:38:54.639Z,79.80
2023-04-04T14:41:40.105Z,79.50
2023-04-04T14:44:25.964Z,79.20
2023-04-04T14:47:11.747Z,79.40
2023-04-04T14:49:58.169Z,78.90
2023-04-04T14:52:43.964Z,78.70
2023-04-04T14:55:29.376Z,78.40
2023-04-04T14:58:15.177Z,78.30
2023-04-04T15:01:01.509Z,78.10
2023-04-04T15:03:47.632Z,77.90
2023-04-04T15:06:36.180Z,77.80
2023-04-04T15:09:22.952Z,77.60
2023-04-04T15:12:08.381Z,77.40
2023-04-04T15:14:54.826Z,77.30
2023-04-04T15:17:42.016Z,77.50
2023-04-04T15:20:27.925Z,77.40
2023-04-04T15:23:13.484Z,77.30
2023-04-04T15:25:59.208Z,76.90
2023-04-04T15:28:45.083Z,76.90
2023-04-04T15:31:31.621Z,76.90
2023-04-04T15:34:17.318Z,76.80
2023-04-04T15:37:04.304Z,76.80
2023-04-04T15:39:53.438Z,76.80
2023-04-04T15:42:39.498Z,76.80
2023-04-04T15:45:25.015Z,76.90
2023-04-04T15:48:10.418Z,76.80
2023-04-04T15:51:01.068Z,76.80
2023-04-04T15:53:46.752Z,76.90
2023-04-04T15:56:32.309Z,77.00
2023-04-04T15:59:18.204Z,77.10
2023-04-04T16:02:07.014Z,77.10
2023-04-04T16:04:52.216Z,77.10
2023-04-04T16:07:37.846Z,77.10
2023-04-04T16:10:23.535Z,77.40
2023-04-04T16:13:09.031Z,77.40
2023-04-04T16:15:54.997Z,77.60
2023-04-04T16:18:41.866Z,77.70
2023-04-04T16:21:27.866Z,77.90
2023-04-04T16:24:15.110Z,78.20
2023-04-04T16:27:01.094Z,78.80
2023-04-04T16:29:47.188Z,79.40
2023-04-04T16:32:34.349Z,79.90
2023-04-04T16:35:20.148Z,80.70
2023-04-04T16:38:06.467Z,81.40
2023-04-04T16:40:51.972Z,82.20
2023-04-04T16:43:37.715Z,82.80
2023-04-04T16:46:24.479Z,83.80
2023-04-04T16:49:10.083Z,84.70
2023-04-04T16:51:55.490Z,85.90
2023-04-04T16:54:42.786Z,86.90
2023-04-04T16:57:28.394Z,87.40
2023-04-04T17:00:14.529Z,88.30
2023-04-04T17:02:59.714Z,89.20
2023-04-04T17:05:45.431Z,90.00
2023-04-04T17:08:32.090Z,90.50
2023-04-04T17:11:17.516Z,90.90
2023-04-04T17:14:02.954Z,91.70
2023-04-04T17:16:48.896Z,91.90
2023-04-04T17:19:35.271Z,92.20
2023-04-04T17:22:20.883Z,92.40
2023-04-04T17:25:06.837Z,92.80
2023-04-04T17:27:52.377Z,93.10
2023-04-04T17:30:38.291Z,93.40
2023-04-04T17:33:23.897Z,93.60
2023-04-04T17:36:09.559Z,93.90
2023-04-04T17:38:55.180Z,94.10
2023-04-04T17:41:41.039Z,94.40
2023-04-04T17:44:26.424Z,94.50
2023-04-04T17:47:12.351Z,94.80
2023-04-04T17:49:58.176Z,95.10
2023-04-04T17:52:43.948Z,95.40
2023-04-04T17:55:30.426Z,95.70
2023-04-04T17:58:16.514Z,95.70
2023-04-04T18:01:05.522Z,95.60
2023-04-04T18:03:51.591Z,95.80
2023-04-04T18:06:40.145Z,95.80
2023-04-04T18:09:26.562Z,96.00
2023-04-04T18:12:12.265Z,96.20
2023-04-04T18:14:57.676Z,96.40
2023-04-04T18:17:43.300Z,96.60
2023-04-04T18:20:34.997Z,96.90
2023-04-04T18:23:20.998Z,97.10
2023-04-04T18:26:06.964Z,97.30
2023-04-04T18:28:52.526Z,97.40
2023-04-04T18:31:38.402Z,97.60
2023-04-04T18:34:23.880Z,97.80
2023-04-04T18:37:09.136Z,97.90
2023-04-04T18:39:54.786Z,98.00
2023-04-04T18:42:41.093Z,98.10
2023-04-04T18:45:33.520Z,98.20
2023-04-04T18:48:25.180Z,98.30
2023-04-04T18:51:10.814Z,98.40
2023-04-04T18:53:56.614Z,98.50
2023-04-04T18:56:41.958Z,98.60
2023-04-04T18:59:28.093Z,98.80
2023-04-04T19:02:13.560Z,98.90
2023-04-04T19:04:59.366Z,99.10
2023-04-04T19:07:44.805Z,99.20
2023-04-04T19:10:30.956Z,99.50
2023-04-04T19:13:17.193Z,99.60
2023-04-04T19:16:02.846Z,99.70
2023-04-04T19:18:48.398Z,99.90
2023-04-04T19:21:34.231Z,99.90
2023-04-04T19:24:19.754Z,99.90
2023-04-04T19:27:05.335Z,99.90
2023-04-04T19:29:53.246Z,99.90
2023-04-04T19:32:39.069Z,99.90
2023-04-04T19:35:44.732Z,99.90
2023-04-04T19:38:34.350Z,99.90
2023-04-04T19:41:22.753Z,99.90
2023-04-04T19:44:15.569Z,99.90
2023-04-04T19:47:01.166Z,99.90
2023-04-04T19:49:48.098Z,99.90
2023-04-04T19:52:36.582Z,99.90
2023-04-04T19:55:33.419Z,99.90
2023-04-04T19:58:21.164Z,99.90
2023-04-04T20:01:07.087Z,99.90
2023-04-04T20:03:53.114Z,99.90
2023-04-04T20:06:39.938Z,99.90
2023-04-04T20:09:38.392Z,99.90
2023-04-04T20:12:24.672Z,82.90
2023-04-04T20:15:13.977Z,67.70
2023-04-04T20:17:59.575Z,61.60
2023-04-04T20:20:50.465Z,66.00
2023-04-04T20:23:53.514Z,67.10
2023-04-04T20:26:39.269Z,74.20
2023-04-04T20:29:31.130Z,71.30
2023-04-04T20:32:16.519Z,75.10
2023-04-04T20:35:02.517Z,68.50
2023-04-04T20:37:47.892Z,71.80
2023-04-04T20:40:38.500Z,66.00
2023-04-04T20:43:24.105Z,72.70
2023-04-04T20:46:10.434Z,66.00
2023-04-04T20:48:56.985Z,72.10
2023-04-04T20:51:42.602Z,65.10
2023-04-04T20:54:28.086Z,65.70
2023-04-04T20:57:15.016Z,61.80
2023-04-04T21:00:01.041Z,68.00
2023-04-04T21:02:46.526Z,70.60
2023-04-04T21:05:33.239Z,77.30
2023-04-04T21:08:21.650Z,75.90
2023-04-04T21:11:07.284Z,66.20
2023-04-04T21:19:24.885Z,69.10
2023-04-04T21:22:10.638Z,73.50
2023-04-04T21:24:56.344Z,71.30
2023-04-04T21:27:42.087Z,70.50
2023-04-04T21:35:59.869Z,70.90
2023-04-04T22:06:27.372Z,75.60
2023-04-04T22:09:12.947Z,78.80
2023-04-04T22:11:58.992Z,76.90
2023-04-04T22:14:45.476Z,76.20
2023-04-04T22:20:17.784Z,71.50
2023-04-04T22:23:05.863Z,77.40
2023-04-04T22:25:51.919Z,75.70
2023-04-04T22:28:38.588Z,72.50
2023-04-04T22:31:23.934Z,74.80
2023-04-04T22:34:10.192Z,79.70
2023-04-04T22:36:59.305Z,73.00
2023-04-04T22:48:04.216Z,73.40
2023-04-04T22:50:51.122Z,82.30
2023-04-04T22:56:22.503Z,80.60
2023-04-04T22:59:08.234Z,77.40
2023-04-04T23:01:53.736Z,72.50
2023-04-04T23:10:13.404Z,73.70
2023-04-04T23:12:58.940Z,79.00
2023-04-04T23:15:45.435Z,81.00
2023-04-04T23:18:30.840Z,78.20
2023-04-04T23:21:16.479Z,78.20
2023-04-04T23:24:02.864Z,75.80
2023-04-04T23:26:48.180Z,74.50
2023-04-04T23:48:59.785Z,84.30
2023-04-04T23:51:45.153Z,79.50
